sensor_id;sensor_type;location;lat;lon;timestamp;P1;durP1;ratioP1;P2;durP2;ratioP2
45356;SDS011;31092;51.924;21.448;2023-11-19T00:00:41;29.38;;;15.90;;
45356;SDS011;31092;51.924;21.448;2023-11-19T00:03:06;31.58;;;14.50;;
45356;SDS011;31092;51.924;21.448;2023-11-19T00:05:33;27.52;;;13.38;;
45356;SDS011;31092;51.924;21.448;2023-11-19T00:07:58;34.05;;;15.70;;
45356;SDS011;31092;51.924;21.448;2023-11-19T00:10:24;27.50;;;13.55;;
45356;SDS011;31092;51.924;21.448;2023-11-19T00:12:50;30.00;;;15.27;;
45356;SDS011;31092;51.924;21.448;2023-11-19T00:15:16;28.63;;;15.02;;
45356;SDS011;31092;51.924;21.448;2023-11-19T00:17:46;25.88;;;14.80;;
45356;SDS011;31092;51.924;21.448;2023-11-19T00:20:16;25.50;;;14.73;;
45356;SDS011;31092;51.924;21.448;2023-11-19T00:22:44;30.13;;;15.48;;
45356;SDS011;31092;51.924;21.448;2023-11-19T00:25:13;30.90;;;14.75;;
45356;SDS011;31092;51.924;21.448;2023-11-19T00:27:39;29.85;;;14.88;;
45356;SDS011;31092;51.924;21.448;2023-11-19T00:30:05;28.45;;;14.82;;
45356;SDS011;31092;51.924;21.448;2023-11-19T00:32:34;30.63;;;15.07;;
45356;SDS011;31092;51.924;21.448;2023-11-19T00:35:00;28.50;;;14.77;;
45356;SDS011;31092;51.924;21.448;2023-11-19T00:37:28;29.40;;;14.95;;
45356;SDS011;31092;51.924;21.448;2023-11-19T00:39:54;31.00;;;14.73;;
45356;SDS011;31092;51.924;21.448;2023-11-19T00:42:21;28.23;;;14.35;;
45356;SDS011;31092;51.924;21.448;2023-11-19T00:44:47;31.75;;;14.85;;
45356;SDS011;31092;51.924;21.448;2023-11-19T00:47:13;31.02;;;14.85;;
45356;SDS011;31092;51.924;21.448;2023-11-19T00:49:38;30.35;;;15.38;;
45356;SDS011;31092;51.924;21.448;2023-11-19T00:52:04;30.20;;;15.73;;
45356;SDS011;31092;51.924;21.448;2023-11-19T00:54:29;26.02;;;14.15;;
45356;SDS011;31092;51.924;21.448;2023-11-19T00:56:55;32.78;;;16.60;;
45356;SDS011;31092;51.924;21.448;2023-11-19T00:59:21;37.65;;;15.88;;
45356;SDS011;31092;51.924;21.448;2023-11-19T01:01:46;29.42;;;14.55;;
45356;SDS011;31092;51.924;21.448;2023-11-19T01:04:18;26.55;;;13.57;;
45356;SDS011;31092;51.924;21.448;2023-11-19T01:06:44;33.15;;;14.95;;
45356;SDS011;31092;51.924;21.448;2023-11-19T01:09:10;29.42;;;15.20;;
45356;SDS011;31092;51.924;21.448;2023-11-19T01:11:36;29.20;;;15.32;;
45356;SDS011;31092;51.924;21.448;2023-11-19T01:14:02;35.83;;;16.58;;
45356;SDS011;31092;51.924;21.448;2023-11-19T01:16:28;29.92;;;15.05;;
45356;SDS011;31092;51.924;21.448;2023-11-19T01:18:53;28.27;;;14.57;;
45356;SDS011;31092;51.924;21.448;2023-11-19T01:21:19;33.60;;;15.98;;
45356;SDS011;31092;51.924;21.448;2023-11-19T01:23:45;27.23;;;15.27;;
45356;SDS011;31092;51.924;21.448;2023-11-19T01:26:11;27.35;;;14.20;;
45356;SDS011;31092;51.924;21.448;2023-11-19T01:28:41;28.77;;;14.73;;
45356;SDS011;31092;51.924;21.448;2023-11-19T01:31:10;30.17;;;15.00;;
45356;SDS011;31092;51.924;21.448;2023-11-19T01:33:36;32.83;;;14.30;;
45356;SDS011;31092;51.924;21.448;2023-11-19T01:36:02;28.48;;;12.55;;
45356;SDS011;31092;51.924;21.448;2023-11-19T01:38:29;26.20;;;13.65;;
45356;SDS011;31092;51.924;21.448;2023-11-19T01:40:56;28.20;;;14.07;;
45356;SDS011;31092;51.924;21.448;2023-11-19T01:43:35;33.50;;;15.23;;
45356;SDS011;31092;51.924;21.448;2023-11-19T01:46:06;26.33;;;13.70;;
45356;SDS011;31092;51.924;21.448;2023-11-19T01:48:34;26.13;;;14.48;;
45356;SDS011;31092;51.924;21.448;2023-11-19T01:51:02;32.20;;;15.10;;
45356;SDS011;31092;51.924;21.448;2023-11-19T01:53:28;31.65;;;15.88;;
45356;SDS011;31092;51.924;21.448;2023-11-19T01:55:55;35.33;;;16.52;;
45356;SDS011;31092;51.924;21.448;2023-11-19T01:58:22;38.53;;;17.05;;
45356;SDS011;31092;51.924;21.448;2023-11-19T02:00:48;35.08;;;15.75;;
45356;SDS011;31092;51.924;21.448;2023-11-19T02:03:14;30.88;;;15.65;;
45356;SDS011;31092;51.924;21.448;2023-11-19T02:05:39;33.90;;;15.15;;
45356;SDS011;31092;51.924;21.448;2023-11-19T02:08:05;32.60;;;16.90;;
45356;SDS011;31092;51.924;21.448;2023-11-19T02:10:31;36.25;;;15.63;;
45356;SDS011;31092;51.924;21.448;2023-11-19T02:12:57;35.33;;;16.17;;
45356;SDS011;31092;51.924;21.448;2023-11-19T02:15:23;33.47;;;17.52;;
45356;SDS011;31092;51.924;21.448;2023-11-19T02:17:51;37.78;;;16.30;;
45356;SDS011;31092;51.924;21.448;2023-11-19T02:20:17;33.75;;;15.13;;
45356;SDS011;31092;51.924;21.448;2023-11-19T02:22:45;30.58;;;15.02;;
45356;SDS011;31092;51.924;21.448;2023-11-19T02:25:18;36.80;;;15.88;;
45356;SDS011;31092;51.924;21.448;2023-11-19T02:27:55;32.47;;;14.95;;
45356;SDS011;31092;51.924;21.448;2023-11-19T02:30:24;26.33;;;13.80;;
45356;SDS011;31092;51.924;21.448;2023-11-19T02:32:54;31.23;;;14.80;;
45356;SDS011;31092;51.924;21.448;2023-11-19T02:35:22;24.17;;;13.38;;
45356;SDS011;31092;51.924;21.448;2023-11-19T02:37:48;33.00;;;14.40;;
45356;SDS011;31092;51.924;21.448;2023-11-19T02:40:14;32.58;;;14.50;;
45356;SDS011;31092;51.924;21.448;2023-11-19T02:42:39;32.65;;;14.20;;
45356;SDS011;31092;51.924;21.448;2023-11-19T02:45:05;29.88;;;13.98;;
45356;SDS011;31092;51.924;21.448;2023-11-19T02:47:33;36.17;;;15.43;;
45356;SDS011;31092;51.924;21.448;2023-11-19T02:49:58;29.08;;;14.10;;
45356;SDS011;31092;51.924;21.448;2023-11-19T02:52:25;30.15;;;14.55;;
45356;SDS011;31092;51.924;21.448;2023-11-19T02:54:50;28.60;;;14.98;;
45356;SDS011;31092;51.924;21.448;2023-11-19T02:57:16;29.15;;;13.85;;
45356;SDS011;31092;51.924;21.448;2023-11-19T02:59:44;29.90;;;13.38;;
45356;SDS011;31092;51.924;21.448;2023-11-19T03:02:09;29.05;;;12.77;;
45356;SDS011;31092;51.924;21.448;2023-11-19T03:04:40;27.05;;;13.75;;
45356;SDS011;31092;51.924;21.448;2023-11-19T03:07:08;25.48;;;13.48;;
45356;SDS011;31092;51.924;21.448;2023-11-19T03:09:34;26.55;;;13.52;;
45356;SDS011;31092;51.924;21.448;2023-11-19T03:12:05;24.55;;;12.25;;
45356;SDS011;31092;51.924;21.448;2023-11-19T03:14:33;27.90;;;13.80;;
45356;SDS011;31092;51.924;21.448;2023-11-19T03:16:59;26.33;;;13.73;;
45356;SDS011;31092;51.924;21.448;2023-11-19T03:19:25;27.08;;;12.75;;
45356;SDS011;31092;51.924;21.448;2023-11-19T03:21:51;29.00;;;12.95;;
45356;SDS011;31092;51.924;21.448;2023-11-19T03:24:17;29.48;;;14.27;;
45356;SDS011;31092;51.924;21.448;2023-11-19T03:26:47;31.60;;;14.65;;
45356;SDS011;31092;51.924;21.448;2023-11-19T03:29:49;27.05;;;12.40;;
45356;SDS011;31092;51.924;21.448;2023-11-19T03:32:15;28.70;;;13.65;;
45356;SDS011;31092;51.924;21.448;2023-11-19T03:34:40;27.98;;;13.93;;
45356;SDS011;31092;51.924;21.448;2023-11-19T03:37:06;27.35;;;14.13;;
45356;SDS011;31092;51.924;21.448;2023-11-19T03:39:31;34.63;;;13.57;;
45356;SDS011;31092;51.924;21.448;2023-11-19T03:41:57;29.10;;;14.13;;
45356;SDS011;31092;51.924;21.448;2023-11-19T03:44:23;26.92;;;12.48;;
45356;SDS011;31092;51.924;21.448;2023-11-19T03:46:52;28.65;;;13.75;;
45356;SDS011;31092;51.924;21.448;2023-11-19T03:49:17;27.52;;;13.77;;
45356;SDS011;31092;51.924;21.448;2023-11-19T03:51:43;32.22;;;14.75;;
45356;SDS011;31092;51.924;21.448;2023-11-19T03:54:08;33.95;;;14.95;;
45356;SDS011;31092;51.924;21.448;2023-11-19T03:56:34;31.25;;;14.88;;
45356;SDS011;31092;51.924;21.448;2023-11-19T03:59:00;28.20;;;14.07;;
45356;SDS011;31092;51.924;21.448;2023-11-19T04:01:25;24.42;;;13.07;;
45356;SDS011;31092;51.924;21.448;2023-11-19T04:03:51;37.13;;;15.90;;
45356;SDS011;31092;51.924;21.448;2023-11-19T04:06:16;36.75;;;14.90;;
45356;SDS011;31092;51.924;21.448;2023-11-19T04:08:42;30.73;;;14.98;;
45356;SDS011;31092;51.924;21.448;2023-11-19T04:11:14;30.73;;;13.70;;
45356;SDS011;31092;51.924;21.448;2023-11-19T04:13:43;26.50;;;15.48;;
45356;SDS011;31092;51.924;21.448;2023-11-19T04:16:09;30.92;;;14.63;;
45356;SDS011;31092;51.924;21.448;2023-11-19T04:18:34;32.35;;;15.63;;
45356;SDS011;31092;51.924;21.448;2023-11-19T04:21:00;28.10;;;14.02;;
45356;SDS011;31092;51.924;21.448;2023-11-19T04:23:25;27.10;;;12.50;;
45356;SDS011;31092;51.924;21.448;2023-11-19T04:25:51;24.65;;;12.38;;
45356;SDS011;31092;51.924;21.448;2023-11-19T04:28:16;22.75;;;12.88;;
45356;SDS011;31092;51.924;21.448;2023-11-19T04:30:42;22.92;;;11.95;;
45356;SDS011;31092;51.924;21.448;2023-11-19T04:33:09;26.63;;;12.75;;
45356;SDS011;31092;51.924;21.448;2023-11-19T04:35:35;28.65;;;12.90;;
45356;SDS011;31092;51.924;21.448;2023-11-19T04:38:00;28.23;;;17.42;;
45356;SDS011;31092;51.924;21.448;2023-11-19T04:40:26;22.38;;;12.88;;
45356;SDS011;31092;51.924;21.448;2023-11-19T04:42:51;27.88;;;13.57;;
45356;SDS011;31092;51.924;21.448;2023-11-19T04:45:17;25.85;;;13.02;;
45356;SDS011;31092;51.924;21.448;2023-11-19T04:47:43;19.88;;;12.20;;
45356;SDS011;31092;51.924;21.448;2023-11-19T04:50:08;25.30;;;13.00;;
45356;SDS011;31092;51.924;21.448;2023-11-19T04:52:37;21.88;;;12.63;;
45356;SDS011;31092;51.924;21.448;2023-11-19T04:55:05;27.92;;;14.27;;
45356;SDS011;31092;51.924;21.448;2023-11-19T04:57:31;21.33;;;12.13;;
45356;SDS011;31092;51.924;21.448;2023-11-19T04:59:57;28.40;;;13.30;;
45356;SDS011;31092;51.924;21.448;2023-11-19T05:02:23;21.98;;;12.25;;
45356;SDS011;31092;51.924;21.448;2023-11-19T05:04:48;22.52;;;11.77;;
45356;SDS011;31092;51.924;21.448;2023-11-19T05:07:14;26.42;;;12.75;;
45356;SDS011;31092;51.924;21.448;2023-11-19T05:09:39;23.55;;;12.43;;
45356;SDS011;31092;51.924;21.448;2023-11-19T05:12:05;28.25;;;14.27;;
45356;SDS011;31092;51.924;21.448;2023-11-19T05:14:34;22.38;;;12.27;;
45356;SDS011;31092;51.924;21.448;2023-11-19T05:17:00;26.75;;;12.48;;
45356;SDS011;31092;51.924;21.448;2023-11-19T05:19:25;20.80;;;11.48;;
45356;SDS011;31092;51.924;21.448;2023-11-19T05:21:51;24.65;;;12.82;;
45356;SDS011;31092;51.924;21.448;2023-11-19T05:24:17;23.75;;;11.32;;
45356;SDS011;31092;51.924;21.448;2023-11-19T05:26:43;24.83;;;11.85;;
45356;SDS011;31092;51.924;21.448;2023-11-19T05:29:08;21.83;;;11.10;;
45356;SDS011;31092;51.924;21.448;2023-11-19T05:31:34;20.42;;;11.40;;
45356;SDS011;31092;51.924;21.448;2023-11-19T05:33:59;24.67;;;12.23;;
45356;SDS011;31092;51.924;21.448;2023-11-19T05:36:25;23.17;;;12.07;;
45356;SDS011;31092;51.924;21.448;2023-11-19T05:38:50;23.58;;;11.73;;
45356;SDS011;31092;51.924;21.448;2023-11-19T05:41:16;24.33;;;12.60;;
45356;SDS011;31092;51.924;21.448;2023-11-19T05:43:41;22.02;;;11.38;;
45356;SDS011;31092;51.924;21.448;2023-11-19T05:46:07;19.67;;;11.77;;
45356;SDS011;31092;51.924;21.448;2023-11-19T05:48:34;22.40;;;11.48;;
45356;SDS011;31092;51.924;21.448;2023-11-19T05:50:59;18.05;;;11.85;;
45356;SDS011;31092;51.924;21.448;2023-11-19T05:53:25;26.95;;;11.73;;
45356;SDS011;31092;51.924;21.448;2023-11-19T05:55:51;20.50;;;11.50;;
45356;SDS011;31092;51.924;21.448;2023-11-19T05:58:23;19.80;;;10.60;;
45356;SDS011;31092;51.924;21.448;2023-11-19T06:00:50;24.25;;;12.18;;
45356;SDS011;31092;51.924;21.448;2023-11-19T06:03:16;21.70;;;11.23;;
45356;SDS011;31092;51.924;21.448;2023-11-19T06:05:44;20.55;;;11.25;;
45356;SDS011;31092;51.924;21.448;2023-11-19T06:08:11;19.25;;;10.15;;
45356;SDS011;31092;51.924;21.448;2023-11-19T06:10:38;16.85;;;10.90;;
45356;SDS011;31092;51.924;21.448;2023-11-19T06:13:04;25.48;;;11.95;;
45356;SDS011;31092;51.924;21.448;2023-11-19T06:15:30;16.38;;;10.65;;
45356;SDS011;31092;51.924;21.448;2023-11-19T06:17:59;25.10;;;11.18;;
45356;SDS011;31092;51.924;21.448;2023-11-19T06:20:26;22.52;;;11.18;;
45356;SDS011;31092;51.924;21.448;2023-11-19T06:22:54;18.23;;;10.38;;
45356;SDS011;31092;51.924;21.448;2023-11-19T06:25:19;20.67;;;10.38;;
45356;SDS011;31092;51.924;21.448;2023-11-19T06:27:45;22.85;;;11.75;;
45356;SDS011;31092;51.924;21.448;2023-11-19T06:30:10;19.33;;;11.32;;
45356;SDS011;31092;51.924;21.448;2023-11-19T06:32:37;21.30;;;10.80;;
45356;SDS011;31092;51.924;21.448;2023-11-19T06:35:03;17.42;;;9.75;;
45356;SDS011;31092;51.924;21.448;2023-11-19T06:37:30;21.52;;;10.25;;
45356;SDS011;31092;51.924;21.448;2023-11-19T06:39:55;14.27;;;9.70;;
45356;SDS011;31092;51.924;21.448;2023-11-19T06:42:21;16.50;;;11.20;;
45356;SDS011;31092;51.924;21.448;2023-11-19T06:44:46;20.90;;;11.05;;
45356;SDS011;31092;51.924;21.448;2023-11-19T06:47:12;18.02;;;9.48;;
45356;SDS011;31092;51.924;21.448;2023-11-19T06:49:37;18.42;;;10.32;;
45356;SDS011;31092;51.924;21.448;2023-11-19T06:52:03;21.23;;;10.77;;
45356;SDS011;31092;51.924;21.448;2023-11-19T06:54:29;18.33;;;10.18;;
45356;SDS011;31092;51.924;21.448;2023-11-19T06:56:56;20.55;;;9.68;;
45356;SDS011;31092;51.924;21.448;2023-11-19T06:59:22;17.52;;;10.35;;
45356;SDS011;31092;51.924;21.448;2023-11-19T07:01:48;16.33;;;9.25;;
45356;SDS011;31092;51.924;21.448;2023-11-19T07:04:14;16.60;;;9.40;;
45356;SDS011;31092;51.924;21.448;2023-11-19T07:06:39;13.75;;;9.80;;
45356;SDS011;31092;51.924;21.448;2023-11-19T07:09:08;15.25;;;10.05;;
45356;SDS011;31092;51.924;21.448;2023-11-19T07:11:37;15.77;;;9.38;;
45356;SDS011;31092;51.924;21.448;2023-11-19T07:14:04;13.63;;;9.40;;
45356;SDS011;31092;51.924;21.448;2023-11-19T07:16:30;16.13;;;9.75;;
45356;SDS011;31092;51.924;21.448;2023-11-19T07:18:56;16.70;;;10.00;;
45356;SDS011;31092;51.924;21.448;2023-11-19T07:21:21;18.10;;;10.48;;
45356;SDS011;31092;51.924;21.448;2023-11-19T07:23:47;14.63;;;9.43;;
45356;SDS011;31092;51.924;21.448;2023-11-19T07:26:12;17.55;;;10.18;;
45356;SDS011;31092;51.924;21.448;2023-11-19T07:28:38;17.48;;;10.10;;
45356;SDS011;31092;51.924;21.448;2023-11-19T07:31:05;20.20;;;11.18;;
45356;SDS011;31092;51.924;21.448;2023-11-19T07:33:32;20.50;;;9.82;;
45356;SDS011;31092;51.924;21.448;2023-11-19T07:35:58;19.08;;;10.35;;
45356;SDS011;31092;51.924;21.448;2023-11-19T07:38:24;20.00;;;10.45;;
45356;SDS011;31092;51.924;21.448;2023-11-19T07:40:49;16.88;;;9.98;;
45356;SDS011;31092;51.924;21.448;2023-11-19T07:43:15;16.75;;;10.32;;
45356;SDS011;31092;51.924;21.448;2023-11-19T07:45:41;18.15;;;10.88;;
45356;SDS011;31092;51.924;21.448;2023-11-19T07:48:09;21.85;;;9.77;;
45356;SDS011;31092;51.924;21.448;2023-11-19T07:50:35;19.58;;;10.93;;
45356;SDS011;31092;51.924;21.448;2023-11-19T07:53:00;17.23;;;10.55;;
45356;SDS011;31092;51.924;21.448;2023-11-19T07:55:27;20.58;;;11.75;;
45356;SDS011;31092;51.924;21.448;2023-11-19T07:57:52;18.30;;;10.25;;
45356;SDS011;31092;51.924;21.448;2023-11-19T08:00:18;18.95;;;10.55;;
45356;SDS011;31092;51.924;21.448;2023-11-19T08:02:44;16.02;;;9.93;;
45356;SDS011;31092;51.924;21.448;2023-11-19T08:05:10;14.27;;;9.48;;
45356;SDS011;31092;51.924;21.448;2023-11-19T08:07:36;17.17;;;9.95;;
45356;SDS011;31092;51.924;21.448;2023-11-19T08:10:02;17.95;;;9.95;;
45356;SDS011;31092;51.924;21.448;2023-11-19T08:12:30;14.82;;;9.68;;
45356;SDS011;31092;51.924;21.448;2023-11-19T08:14:56;16.73;;;8.98;;
45356;SDS011;31092;51.924;21.448;2023-11-19T08:17:23;21.75;;;10.70;;
45356;SDS011;31092;51.924;21.448;2023-11-19T08:19:49;18.25;;;10.50;;
45356;SDS011;31092;51.924;21.448;2023-11-19T08:22:16;15.02;;;10.07;;
45356;SDS011;31092;51.924;21.448;2023-11-19T08:24:42;13.43;;;9.68;;
45356;SDS011;31092;51.924;21.448;2023-11-19T08:27:08;20.67;;;9.98;;
45356;SDS011;31092;51.924;21.448;2023-11-19T08:29:33;17.80;;;9.93;;
45356;SDS011;31092;51.924;21.448;2023-11-19T08:32:02;16.23;;;9.63;;
45356;SDS011;31092;51.924;21.448;2023-11-19T08:34:28;16.65;;;8.93;;
45356;SDS011;31092;51.924;21.448;2023-11-19T08:36:54;14.68;;;9.07;;
45356;SDS011;31092;51.924;21.448;2023-11-19T08:39:20;20.35;;;9.82;;
45356;SDS011;31092;51.924;21.448;2023-11-19T08:41:46;17.27;;;10.10;;
45356;SDS011;31092;51.924;21.448;2023-11-19T08:44:13;16.98;;;10.07;;
45356;SDS011;31092;51.924;21.448;2023-11-19T08:46:38;17.60;;;10.15;;
45356;SDS011;31092;51.924;21.448;2023-11-19T08:49:05;14.65;;;9.45;;
45356;SDS011;31092;51.924;21.448;2023-11-19T08:51:31;15.57;;;9.30;;
45356;SDS011;31092;51.924;21.448;2023-11-19T08:53:56;20.05;;;10.25;;
45356;SDS011;31092;51.924;21.448;2023-11-19T08:56:22;16.88;;;10.07;;
45356;SDS011;31092;51.924;21.448;2023-11-19T08:58:48;17.95;;;9.73;;
45356;SDS011;31092;51.924;21.448;2023-11-19T09:01:13;14.15;;;9.40;;
45356;SDS011;31092;51.924;21.448;2023-11-19T09:03:39;13.15;;;8.02;;
45356;SDS011;31092;51.924;21.448;2023-11-19T09:06:05;16.63;;;9.82;;
45356;SDS011;31092;51.924;21.448;2023-11-19T09:08:31;18.92;;;9.07;;
45356;SDS011;31092;51.924;21.448;2023-11-19T09:10:56;15.07;;;9.38;;
45356;SDS011;31092;51.924;21.448;2023-11-19T09:13:22;15.85;;;9.57;;
45356;SDS011;31092;51.924;21.448;2023-11-19T09:15:48;14.00;;;9.43;;
45356;SDS011;31092;51.924;21.448;2023-11-19T09:18:14;14.85;;;9.45;;
45356;SDS011;31092;51.924;21.448;2023-11-19T09:20:39;13.00;;;8.98;;
45356;SDS011;31092;51.924;21.448;2023-11-19T09:23:05;16.67;;;10.45;;
45356;SDS011;31092;51.924;21.448;2023-11-19T09:25:31;11.38;;;8.80;;
45356;SDS011;31092;51.924;21.448;2023-11-19T09:27:57;15.85;;;9.82;;
45356;SDS011;31092;51.924;21.448;2023-11-19T09:30:22;13.93;;;8.68;;
45356;SDS011;31092;51.924;21.448;2023-11-19T09:32:48;15.25;;;9.23;;
45356;SDS011;31092;51.924;21.448;2023-11-19T09:35:14;14.88;;;9.40;;
45356;SDS011;31092;51.924;21.448;2023-11-19T09:37:41;15.60;;;9.27;;
45356;SDS011;31092;51.924;21.448;2023-11-19T09:40:06;14.05;;;8.93;;
45356;SDS011;31092;51.924;21.448;2023-11-19T09:42:38;16.33;;;10.05;;
45356;SDS011;31092;51.924;21.448;2023-11-19T09:45:15;13.25;;;8.98;;
45356;SDS011;31092;51.924;21.448;2023-11-19T09:47:45;16.38;;;10.57;;
45356;SDS011;31092;51.924;21.448;2023-11-19T09:50:17;17.30;;;10.18;;
45356;SDS011;31092;51.924;21.448;2023-11-19T09:52:44;17.92;;;9.65;;
45356;SDS011;31092;51.924;21.448;2023-11-19T09:55:10;14.35;;;9.73;;
45356;SDS011;31092;51.924;21.448;2023-11-19T09:57:37;14.80;;;9.25;;
45356;SDS011;31092;51.924;21.448;2023-11-19T10:00:04;16.55;;;9.90;;
45356;SDS011;31092;51.924;21.448;2023-11-19T10:02:33;13.38;;;8.85;;
45356;SDS011;31092;51.924;21.448;2023-11-19T10:05:00;15.40;;;9.85;;
45356;SDS011;31092;51.924;21.448;2023-11-19T10:07:30;13.50;;;8.95;;
45356;SDS011;31092;51.924;21.448;2023-11-19T10:09:58;14.68;;;9.32;;
45356;SDS011;31092;51.924;21.448;2023-11-19T10:12:26;14.75;;;10.43;;
45356;SDS011;31092;51.924;21.448;2023-11-19T10:14:52;15.07;;;10.02;;
45356;SDS011;31092;51.924;21.448;2023-11-19T10:17:21;14.35;;;9.98;;
45356;SDS011;31092;51.924;21.448;2023-11-19T10:19:46;12.80;;;9.05;;
45356;SDS011;31092;51.924;21.448;2023-11-19T10:22:12;14.00;;;9.52;;
45356;SDS011;31092;51.924;21.448;2023-11-19T10:24:39;15.38;;;9.23;;
45356;SDS011;31092;51.924;21.448;2023-11-19T10:27:09;11.70;;;8.65;;
45356;SDS011;31092;51.924;21.448;2023-11-19T10:29:37;14.35;;;9.20;;
45356;SDS011;31092;51.924;21.448;2023-11-19T10:32:03;14.38;;;9.20;;
45356;SDS011;31092;51.924;21.448;2023-11-19T10:34:30;14.75;;;9.38;;
45356;SDS011;31092;51.924;21.448;2023-11-19T10:36:55;14.43;;;8.65;;
45356;SDS011;31092;51.924;21.448;2023-11-19T10:39:21;18.45;;;10.05;;
45356;SDS011;31092;51.924;21.448;2023-11-19T10:41:48;13.52;;;9.15;;
45356;SDS011;31092;51.924;21.448;2023-11-19T10:44:30;12.10;;;9.02;;
45356;SDS011;31092;51.924;21.448;2023-11-19T10:46:58;13.05;;;8.52;;
45356;SDS011;31092;51.924;21.448;2023-11-19T10:49:24;15.27;;;9.38;;
45356;SDS011;31092;51.924;21.448;2023-11-19T10:51:50;15.80;;;9.27;;
45356;SDS011;31092;51.924;21.448;2023-11-19T10:54:18;13.88;;;9.63;;
45356;SDS011;31092;51.924;21.448;2023-11-19T10:56:44;12.27;;;9.07;;
45356;SDS011;31092;51.924;21.448;2023-11-19T10:59:16;17.95;;;9.05;;
45356;SDS011;31092;51.924;21.448;2023-11-19T11:01:45;14.98;;;10.05;;
45356;SDS011;31092;51.924;21.448;2023-11-19T11:04:19;14.25;;;9.75;;
45356;SDS011;31092;51.924;21.448;2023-11-19T11:06:48;14.05;;;8.98;;
45356;SDS011;31092;51.924;21.448;2023-11-19T11:09:13;14.50;;;9.77;;
45356;SDS011;31092;51.924;21.448;2023-11-19T11:11:40;13.95;;;9.88;;
45356;SDS011;31092;51.924;21.448;2023-11-19T11:14:09;14.13;;;9.52;;
45356;SDS011;31092;51.924;21.448;2023-11-19T11:16:42;14.05;;;9.48;;
45356;SDS011;31092;51.924;21.448;2023-11-19T11:19:10;13.88;;;9.10;;
45356;SDS011;31092;51.924;21.448;2023-11-19T11:21:36;12.70;;;9.13;;
45356;SDS011;31092;51.924;21.448;2023-11-19T11:26:58;14.30;;;9.45;;
45356;SDS011;31092;51.924;21.448;2023-11-19T11:29:41;12.75;;;8.80;;
45356;SDS011;31092;51.924;21.448;2023-11-19T11:38:13;13.32;;;8.25;;
45356;SDS011;31092;51.924;21.448;2023-11-19T11:40:40;15.05;;;9.60;;
45356;SDS011;31092;51.924;21.448;2023-11-19T11:43:43;15.48;;;9.45;;
45356;SDS011;31092;51.924;21.448;2023-11-19T11:49:04;16.88;;;9.13;;
45356;SDS011;31092;51.924;21.448;2023-11-19T11:54:10;12.82;;;9.05;;
45356;SDS011;31092;51.924;21.448;2023-11-19T12:02:05;13.80;;;8.68;;
45356;SDS011;31092;51.924;21.448;2023-11-19T12:04:34;17.48;;;10.43;;
45356;SDS011;31092;51.924;21.448;2023-11-19T12:07:05;12.68;;;9.20;;
45356;SDS011;31092;51.924;21.448;2023-11-19T12:09:31;13.15;;;9.15;;
45356;SDS011;31092;51.924;21.448;2023-11-19T12:12:17;13.48;;;10.13;;
45356;SDS011;31092;51.924;21.448;2023-11-19T12:17:50;19.20;;;8.82;;
45356;SDS011;31092;51.924;21.448;2023-11-19T12:20:16;14.43;;;9.10;;
45356;SDS011;31092;51.924;21.448;2023-11-19T12:22:43;12.68;;;9.18;;
45356;SDS011;31092;51.924;21.448;2023-11-19T12:25:10;13.77;;;9.05;;
45356;SDS011;31092;51.924;21.448;2023-11-19T12:27:41;11.55;;;8.50;;
45356;SDS011;31092;51.924;21.448;2023-11-19T12:30:10;10.75;;;8.40;;
45356;SDS011;31092;51.924;21.448;2023-11-19T12:32:38;15.35;;;9.65;;
45356;SDS011;31092;51.924;21.448;2023-11-19T12:35:04;14.05;;;8.75;;
45356;SDS011;31092;51.924;21.448;2023-11-19T12:37:41;14.13;;;9.05;;
45356;SDS011;31092;51.924;21.448;2023-11-19T12:42:36;16.23;;;9.55;;
45356;SDS011;31092;51.924;21.448;2023-11-19T12:45:03;11.18;;;8.65;;
45356;SDS011;31092;51.924;21.448;2023-11-19T12:47:29;14.35;;;9.52;;
45356;SDS011;31092;51.924;21.448;2023-11-19T12:49:57;14.23;;;9.02;;
45356;SDS011;31092;51.924;21.448;2023-11-19T12:52:23;15.20;;;10.15;;
45356;SDS011;31092;51.924;21.448;2023-11-19T12:54:49;13.57;;;10.10;;
45356;SDS011;31092;51.924;21.448;2023-11-19T12:57:15;15.60;;;10.23;;
45356;SDS011;31092;51.924;21.448;2023-11-19T12:59:41;15.38;;;10.18;;
45356;SDS011;31092;51.924;21.448;2023-11-19T13:02:06;13.55;;;9.35;;
45356;SDS011;31092;51.924;21.448;2023-11-19T13:04:33;16.35;;;10.60;;
45356;SDS011;31092;51.924;21.448;2023-11-19T13:10:04;17.50;;;9.70;;
45356;SDS011;31092;51.924;21.448;2023-11-19T13:12:31;15.25;;;9.80;;
45356;SDS011;31092;51.924;21.448;2023-11-19T13:14:56;15.65;;;10.07;;
45356;SDS011;31092;51.924;21.448;2023-11-19T13:17:23;15.93;;;10.65;;
45356;SDS011;31092;51.924;21.448;2023-11-19T13:19:50;17.63;;;10.65;;
45356;SDS011;31092;51.924;21.448;2023-11-19T13:22:16;20.20;;;10.98;;
45356;SDS011;31092;51.924;21.448;2023-11-19T13:24:41;19.15;;;10.88;;
45356;SDS011;31092;51.924;21.448;2023-11-19T13:27:07;17.17;;;10.45;;
45356;SDS011;31092;51.924;21.448;2023-11-19T13:29:33;15.82;;;10.48;;
45356;SDS011;31092;51.924;21.448;2023-11-19T13:31:58;16.38;;;9.85;;
45356;SDS011;31092;51.924;21.448;2023-11-19T13:34:25;17.45;;;11.52;;
45356;SDS011;31092;51.924;21.448;2023-11-19T13:36:50;20.33;;;10.95;;
45356;SDS011;31092;51.924;21.448;2023-11-19T13:39:15;14.55;;;10.07;;
45356;SDS011;31092;51.924;21.448;2023-11-19T13:41:49;16.02;;;10.80;;
45356;SDS011;31092;51.924;21.448;2023-11-19T13:44:15;19.27;;;10.45;;
45356;SDS011;31092;51.924;21.448;2023-11-19T13:46:44;19.08;;;10.68;;
45356;SDS011;31092;51.924;21.448;2023-11-19T13:49:11;15.15;;;9.90;;
45356;SDS011;31092;51.924;21.448;2023-11-19T13:51:36;15.45;;;11.07;;
45356;SDS011;31092;51.924;21.448;2023-11-19T13:54:03;16.38;;;10.50;;
45356;SDS011;31092;51.924;21.448;2023-11-19T13:56:28;15.88;;;10.02;;
45356;SDS011;31092;51.924;21.448;2023-11-19T13:58:54;16.38;;;11.05;;
45356;SDS011;31092;51.924;21.448;2023-11-19T14:01:19;18.67;;;11.48;;
45356;SDS011;31092;51.924;21.448;2023-11-19T14:03:45;17.13;;;10.38;;
45356;SDS011;31092;51.924;21.448;2023-11-19T14:06:10;16.20;;;10.25;;
45356;SDS011;31092;51.924;21.448;2023-11-19T14:08:37;20.40;;;11.80;;
45356;SDS011;31092;51.924;21.448;2023-11-19T14:11:03;18.02;;;10.85;;
45356;SDS011;31092;51.924;21.448;2023-11-19T14:13:30;19.88;;;11.82;;
45356;SDS011;31092;51.924;21.448;2023-11-19T14:15:55;17.08;;;11.27;;
45356;SDS011;31092;51.924;21.448;2023-11-19T14:18:21;20.52;;;12.35;;
45356;SDS011;31092;51.924;21.448;2023-11-19T14:20:46;20.10;;;11.80;;
45356;SDS011;31092;51.924;21.448;2023-11-19T14:23:12;17.70;;;11.10;;
45356;SDS011;31092;51.924;21.448;2023-11-19T14:25:37;16.13;;;11.35;;
45356;SDS011;31092;51.924;21.448;2023-11-19T14:28:03;17.42;;;10.93;;
45356;SDS011;31092;51.924;21.448;2023-11-19T14:30:28;17.67;;;10.80;;
45356;SDS011;31092;51.924;21.448;2023-11-19T14:32:54;16.08;;;10.80;;
45356;SDS011;31092;51.924;21.448;2023-11-19T14:35:19;21.95;;;12.35;;
45356;SDS011;31092;51.924;21.448;2023-11-19T14:37:45;18.98;;;11.75;;
45356;SDS011;31092;51.924;21.448;2023-11-19T14:40:11;19.50;;;11.35;;